Time,TemperatureF,DewpointF,PressureIn,WindDirection,WindDirectionDegrees,WindSpeedMPH,WindSpeedGustMPH,Humidity,HourlyPrecipIn,Conditions,Clouds,dailyrainin,SoftwareType,DateUTC
2013-11-05 00:09:00,66.7,37.0,30.84,South,173,0.0,-999.0,33,-99.99,,,0.00,weatherlink.com 1.10,2013-11-05 06:09:00,
2013-11-05 00:24:00,66.6,36.0,30.84,South,173,0.0,-999.0,33,-99.99,,,0.00,weatherlink.com 1.10,2013-11-05 06:24:00,
2013-11-05 00:39:00,66.6,36.0,30.84,South,173,0.0,-999.0,32,-99.99,,,0.00,weatherlink.com 1.10,2013-11-05 06:39:00,
2013-11-05 00:54:00,66.5,36.0,30.83,South,173,0.0,-999.0,32,-99.99,,,0.00,weatherlink.com 1.10,2013-11-05 06:54:00,
2013-11-05 01:09:00,66.6,36.0,30.84,South,173,0.0,-999.0,32,-99.99,,,0.00,weatherlink.com 1.10,2013-11-05 07:09:00,
2013-11-05 01:24:00,66.6,36.0,30.83,South,173,0.0,-999.0,32,-99.99,,,0.01,weatherlink.com 1.10,2013-11-05 07:24:00,
2013-11-05 01:39:00,66.6,36.0,30.83,South,173,0.0,-999.0,32,-99.99,,,0.01,weatherlink.com 1.10,2013-11-05 07:39:00,
2013-11-05 01:54:00,66.7,36.0,30.84,South,173,0.0,-999.0,32,-99.99,,,0.03,weatherlink.com 1.10,2013-11-05 07:54:00,
2013-11-05 02:10:00,66.7,36.0,30.83,South,175,0.0,-999.0,32,-99.99,,,0.03,weatherlink.com 1.10,2013-11-05 08:10:00,
2013-11-05 02:25:00,66.7,36.0,30.81,South,175,0.0,-999.0,32,-99.99,,,0.04,weatherlink.com 1.10,2013-11-05 08:25:00,
2013-11-05 02:40:00,66.6,36.0,30.81,South,175,0.0,-999.0,32,-99.99,,,0.04,weatherlink.com 1.10,2013-11-05 08:40:00,
2013-11-05 02:55:00,66.7,36.0,30.82,South,175,0.0,-999.0,32,-99.99,,,0.05,weatherlink.com 1.10,2013-11-05 08:55:00,
2013-11-05 03:10:00,66.7,36.0,30.81,SSE,160,0.0,-999.0,32,-99.99,,,0.05,weatherlink.com 1.10,2013-11-05 09:10:00,
2013-11-05 03:25:00,66.6,36.0,30.81,SSE,150,0.0,-999.0,32,-99.99,,,0.06,weatherlink.com 1.10,2013-11-05 09:25:00,
2013-11-05 03:40:00,66.6,36.0,30.81,SSE,150,0.0,-999.0,32,-99.99,,,0.06,weatherlink.com 1.10,2013-11-05 09:40:00,
2013-11-05 03:55:00,66.6,36.0,30.80,SSE,150,0.0,-999.0,32,-99.99,,,0.06,weatherlink.com 1.10,2013-11-05 09:55:00,
2013-11-05 04:09:00,66.7,36.0,30.80,SE,145,0.0,-999.0,32,-99.99,,,0.06,weatherlink.com 1.10,2013-11-05 10:09:00,
2013-11-05 04:24:00,66.8,36.0,30.79,East,80,0.0,-999.0,32,-99.99,,,0.06,weatherlink.com 1.10,2013-11-05 10:24:00,
2013-11-05 04:39:00,66.8,36.0,30.80,ENE,78,0.0,-999.0,32,-99.99,,,0.06,weatherlink.com 1.10,2013-11-05 10:39:00,
2013-11-05 04:54:00,66.9,36.0,30.80,ENE,78,0.0,-999.0,32,-99.99,,,0.06,weatherlink.com 1.10,2013-11-05 10:54:00,
2013-11-05 05:09:00,67.0,36.0,30.79,ENE,77,0.0,-999.0,32,-99.99,,,0.06,weatherlink.com 1.10,2013-11-05 11:09:00,
2013-11-05 05:24:00,67.1,36.0,30.80,ENE,77,0.0,-999.0,32,-99.99,,,0.06,weatherlink.com 1.10,2013-11-05 11:24:00,
2013-11-05 05:39:00,67.2,35.0,30.80,East,80,0.0,-999.0,31,-99.99,,,0.06,weatherlink.com 1.10,2013-11-05 11:39:00,
2013-11-05 05:55:00,67.3,36.0,30.80,East,96,0.0,-999.0,31,-99.99,,,0.06,weatherlink.com 1.10,2013-11-05 11:55:00,
2013-11-05 06:09:00,67.4,36.0,30.80,ENE,59,0.0,-999.0,31,-99.99,,,0.06,weatherlink.com 1.10,2013-11-05 12:09:00,
2013-11-05 06:24:00,67.6,36.0,30.80,East,97,0.0,-999.0,31,-99.99,,,0.06,weatherlink.com 1.10,2013-11-05 12:24:00,
2013-11-05 06:39:00,67.7,36.0,30.80,ENE,61,0.0,-999.0,31,-99.99,,,0.06,weatherlink.com 1.10,2013-11-05 12:39:00,
2013-11-05 06:54:00,67.8,36.0,30.80,ENE,68,0.0,-999.0,31,-99.99,,,0.06,weatherlink.com 1.10,2013-11-05 12:54:00,
2013-11-05 07:09:00,67.9,36.0,30.81,East,94,0.0,-999.0,31,-99.99,,,0.06,weatherlink.com 1.10,2013-11-05 13:09:00,
2013-11-05 07:24:00,68.0,36.0,30.81,ENE,60,0.0,-999.0,31,-99.99,,,0.06,weatherlink.com 1.10,2013-11-05 13:24:00,
2013-11-05 07:39:00,68.1,36.0,30.82,East,92,0.0,-999.0,31,-99.99,,,0.06,weatherlink.com 1.10,2013-11-05 13:39:00,
2013-11-05 07:54:00,68.3,36.0,30.82,East,86,0.0,-999.0,31,-99.99,,,0.06,weatherlink.com 1.10,2013-11-05 13:54:00,
2013-11-05 08:10:00,68.5,37.0,30.83,East,87,0.0,-999.0,31,-99.99,,,0.06,weatherlink.com 1.10,2013-11-05 14:10:00,
2013-11-05 08:25:00,68.7,37.0,30.83,ESE,117,0.0,-999.0,31,-99.99,,,0.06,weatherlink.com 1.10,2013-11-05 14:25:00,
2013-11-05 08:40:00,69.0,37.0,30.84,SSE,158,0.0,-999.0,31,-99.99,,,0.06,weatherlink.com 1.10,2013-11-05 14:40:00,
2013-11-05 08:55:00,69.2,37.0,30.84,SSE,159,0.0,-999.0,31,-99.99,,,0.06,weatherlink.com 1.10,2013-11-05 14:55:00,
2013-11-05 09:10:00,69.4,37.0,30.84,ESE,117,0.0,-999.0,31,-99.99,,,0.06,weatherlink.com 1.10,2013-11-05 15:10:00,
2013-11-05 09:25:00,69.6,38.0,30.84,ESE,115,0.0,-999.0,31,-99.99,,,0.06,weatherlink.com 1.10,2013-11-05 15:25:00,
2013-11-05 09:40:00,69.9,38.0,30.84,ENE,67,0.0,-999.0,31,-99.99,,,0.06,weatherlink.com 1.10,2013-11-05 15:40:00,
2013-11-05 09:55:00,70.5,38.0,30.84,ENE,69,0.0,-999.0,31,-99.99,,,0.06,weatherlink.com 1.10,2013-11-05 15:55:00,
2013-11-05 10:10:00,70.8,39.0,30.84,SSE,167,0.0,-999.0,31,-99.99,,,0.06,weatherlink.com 1.10,2013-11-05 16:10:00,
2013-11-05 10:25:00,71.0,39.0,30.84,South,173,0.0,-999.0,31,-99.99,,,0.06,weatherlink.com 1.10,2013-11-05 16:25:00,
2013-11-05 10:40:00,71.3,39.0,30.84,South,171,0.0,-999.0,31,-99.99,,,0.06,weatherlink.com 1.10,2013-11-05 16:40:00,
2013-11-05 10:55:00,71.6,39.0,30.83,ESE,112,0.0,-999.0,31,-99.99,,,0.06,weatherlink.com 1.10,2013-11-05 16:55:00,
2013-11-05 11:09:00,72.1,40.0,30.83,ESE,117,0.0,-999.0,31,-99.99,,,0.06,weatherlink.com 1.10,2013-11-05 17:09:00,
2013-11-05 11:24:00,72.7,40.0,30.82,East,91,0.0,-999.0,31,-99.99,,,0.06,weatherlink.com 1.10,2013-11-05 17:24:00,
2013-11-05 11:39:00,73.1,41.0,30.81,East,92,0.0,-999.0,32,-99.99,,,0.06,weatherlink.com 1.10,2013-11-05 17:39:00,
2013-11-05 11:54:00,73.3,42.0,30.81,South,173,0.0,-999.0,33,-99.99,,,0.06,weatherlink.com 1.10,2013-11-05 17:54:00,
2013-11-05 12:10:00,73.5,43.0,30.80,East,97,0.0,-999.0,33,-99.99,,,0.06,weatherlink.com 1.10,2013-11-05 18:10:00,
2013-11-05 12:25:00,73.4,43.0,30.79,East,92,0.0,-999.0,33,-99.99,,,0.06,weatherlink.com 1.10,2013-11-05 18:25:00,
2013-11-05 12:40:00,73.4,42.0,30.79,ESE,106,0.0,-999.0,32,-99.99,,,0.06,weatherlink.com 1.10,2013-11-05 18:40:00,
2013-11-05 12:55:00,73.8,42.0,30.78,ENE,62,4.0,-999.0,32,-99.99,,,0.06,weatherlink.com 1.10,2013-11-05 18:55:00,
2013-11-05 13:10:00,73.6,42.0,30.77,East,92,3.0,-999.0,32,-99.99,,,0.06,weatherlink.com 1.10,2013-11-05 19:10:00,
2013-11-05 13:25:00,73.7,42.0,30.76,ENE,78,1.0,-999.0,32,-99.99,,,0.06,weatherlink.com 1.10,2013-11-05 19:25:00,
2013-11-05 13:40:00,73.7,42.0,30.77,South,169,2.0,-999.0,32,-99.99,,,0.07,weatherlink.com 1.10,2013-11-05 19:40:00,
2013-11-05 13:55:00,73.0,40.0,30.77,SSE,163,3.0,-999.0,30,-99.99,,,0.17,weatherlink.com 1.10,2013-11-05 19:55:00,
2013-11-05 14:10:00,72.6,39.0,30.76,SSE,155,4.0,-999.0,30,-99.99,,,0.17,weatherlink.com 1.10,2013-11-05 20:10:00,
2013-11-05 14:25:00,72.6,39.0,30.76,SSE,165,2.0,-999.0,30,-99.99,,,0.17,weatherlink.com 1.10,2013-11-05 20:25:00,
2013-11-05 14:40:00,72.6,39.0,30.75,SSE,158,0.0,-999.0,30,-99.99,,,0.17,weatherlink.com 1.10,2013-11-05 20:40:00,
2013-11-05 14:55:00,72.6,39.0,30.75,East,95,0.0,-999.0,30,-99.99,,,0.17,weatherlink.com 1.10,2013-11-05 20:55:00,
2013-11-05 15:10:00,72.5,39.0,30.75,SE,140,0.0,-999.0,30,-99.99,,,0.18,weatherlink.com 1.10,2013-11-05 21:10:00,
2013-11-05 15:25:00,72.3,39.0,30.75,South,169,3.0,-999.0,30,-99.99,,,0.18,weatherlink.com 1.10,2013-11-05 21:25:00,
2013-11-05 15:40:00,72.0,39.0,30.75,East,90,5.0,-999.0,30,-99.99,,,0.18,weatherlink.com 1.10,2013-11-05 21:40:00,
2013-11-05 15:55:00,71.6,39.0,30.75,East,94,1.0,-999.0,30,-99.99,,,0.18,weatherlink.com 1.10,2013-11-05 21:55:00,
2013-11-05 16:10:00,71.5,38.0,30.75,SSE,151,0.0,-999.0,30,-99.99,,,0.20,weatherlink.com 1.10,2013-11-05 22:10:00,
2013-11-05 16:25:00,71.2,38.0,30.75,South,170,1.0,-999.0,30,-99.99,,,0.23,weatherlink.com 1.10,2013-11-05 22:25:00,
2013-11-05 16:40:00,71.1,38.0,30.75,ESE,119,0.0,-999.0,30,-99.99,,,0.26,weatherlink.com 1.10,2013-11-05 22:40:00,
2013-11-05 16:55:00,71.1,38.0,30.75,East,88,2.0,-999.0,30,-99.99,,,0.27,weatherlink.com 1.10,2013-11-05 22:55:00,
2013-11-05 17:11:00,71.1,38.0,30.75,East,99,0.0,-999.0,30,-99.99,,,0.27,weatherlink.com 1.10,2013-11-05 23:11:00,
2013-11-05 17:26:00,71.1,38.0,30.75,SE,142,0.0,-999.0,30,-99.99,,,0.27,weatherlink.com 1.10,2013-11-05 23:26:00,
2013-11-05 17:41:00,71.3,38.0,30.75,SE,135,0.0,-999.0,30,-99.99,,,0.27,weatherlink.com 1.10,2013-11-05 23:41:00,
2013-11-05 17:56:00,71.3,38.0,30.75,ESE,119,0.0,-999.0,30,-99.99,,,0.27,weatherlink.com 1.10,2013-11-05 23:56:00,
2013-11-05 18:10:00,71.4,38.0,30.76,SSE,164,0.0,-999.0,30,-99.99,,,0.27,weatherlink.com 1.10,2013-11-06 00:10:00,
2013-11-05 18:25:00,71.5,38.0,30.76,SSE,157,0.0,-999.0,30,-99.99,,,0.27,weatherlink.com 1.10,2013-11-06 00:25:00,
2013-11-05 18:40:00,71.5,38.0,30.77,SSE,152,0.0,-999.0,29,-99.99,,,0.27,weatherlink.com 1.10,2013-11-06 00:40:00,
2013-11-05 18:55:00,71.5,38.0,30.76,SSE,148,0.0,-999.0,29,-99.99,,,0.27,weatherlink.com 1.10,2013-11-06 00:55:00,
2013-11-05 19:10:00,71.5,38.0,30.76,ESE,109,0.0,-999.0,29,-99.99,,,0.27,weatherlink.com 1.10,2013-11-06 01:10:00,
2013-11-05 19:25:00,71.5,38.0,30.77,East,84,0.0,-999.0,29,-99.99,,,0.27,weatherlink.com 1.10,2013-11-06 01:25:00,
2013-11-05 19:40:00,71.5,38.0,30.77,East,85,0.0,-999.0,29,-99.99,,,0.27,weatherlink.com 1.10,2013-11-06 01:40:00,
2013-11-05 19:55:00,71.5,38.0,30.78,East,88,0.0,-999.0,29,-99.99,,,0.27,weatherlink.com 1.10,2013-11-06 01:55:00,
2013-11-05 20:11:00,71.5,38.0,30.78,East,90,2.0,-999.0,29,-99.99,,,0.27,weatherlink.com 1.10,2013-11-06 02:11:00,
2013-11-05 20:26:00,71.5,38.0,30.78,East,98,0.0,-999.0,29,-99.99,,,0.27,weatherlink.com 1.10,2013-11-06 02:26:00,
2013-11-05 20:41:00,71.5,38.0,30.78,East,97,0.0,-999.0,29,-99.99,,,0.27,weatherlink.com 1.10,2013-11-06 02:41:00,
2013-11-05 20:56:00,71.5,38.0,30.78,East,96,0.0,-999.0,29,-99.99,,,0.27,weatherlink.com 1.10,2013-11-06 02:56:00,
2013-11-05 21:10:00,71.5,38.0,30.79,East,96,0.0,-999.0,29,-99.99,,,0.27,weatherlink.com 1.10,2013-11-06 03:10:00,
2013-11-05 21:25:00,71.7,38.0,30.79,East,81,0.0,-999.0,29,-99.99,,,0.27,weatherlink.com 1.10,2013-11-06 03:25:00,
2013-11-05 21:40:00,72.0,38.0,30.79,East,80,0.0,-999.0,29,-99.99,,,0.27,weatherlink.com 1.10,2013-11-06 03:40:00,
2013-11-05 21:55:00,72.1,38.0,30.80,ESE,107,0.0,-999.0,29,-99.99,,,0.27,weatherlink.com 1.10,2013-11-06 03:55:00,
2013-11-05 22:10:00,72.1,38.0,30.80,ESE,109,0.0,-999.0,29,-99.99,,,0.27,weatherlink.com 1.10,2013-11-06 04:10:00,
2013-11-05 22:25:00,72.1,38.0,30.80,South,189,0.0,-999.0,29,-99.99,,,0.27,weatherlink.com 1.10,2013-11-06 04:25:00,
2013-11-05 22:40:00,72.2,38.0,30.80,SSE,159,1.0,-999.0,29,-99.99,,,0.27,weatherlink.com 1.10,2013-11-06 04:40:00,
2013-11-05 22:55:00,72.2,38.0,30.80,SE,134,0.0,-999.0,29,-99.99,,,0.27,weatherlink.com 1.10,2013-11-06 04:55:00,
2013-11-05 23:11:00,72.3,37.0,30.80,SSE,148,0.0,-999.0,28,-99.99,,,0.27,weatherlink.com 1.10,2013-11-06 05:11:00,
2013-11-05 23:26:00,72.2,37.0,30.80,SSE,156,0.0,-999.0,28,-99.99,,,0.27,weatherlink.com 1.10,2013-11-06 05:26:00,
2013-11-05 23:41:00,72.2,37.0,30.80,SSE,157,0.0,-999.0,28,-99.99,,,0.27,weatherlink.com 1.10,2013-11-06 05:41:00,
2013-11-05 23:56:00,72.2,37.0,30.80,SSE,153,0.0,-999.0,28,-99.99,,,0.00,weatherlink.com 1.10,2013-11-06 05:56:00,